createdAt,value
2022-09-12T00:00:51.219Z,13.77
2022-09-12T00:03:17.669Z,13.76
2022-09-12T00:05:46.300Z,13.77
2022-09-12T00:08:14.334Z,13.76
2022-09-12T00:10:43.104Z,13.70
2022-09-12T00:13:11.080Z,13.69
2022-09-12T00:15:42.720Z,13.70
2022-09-12T00:18:12.278Z,13.64
2022-09-12T00:20:47.804Z,13.63
2022-09-12T00:23:14.686Z,13.57
2022-09-12T00:25:43.206Z,13.51
2022-09-12T00:28:10.057Z,13.56
2022-09-12T00:30:43.450Z,13.57
2022-09-12T00:33:11.210Z,13.52
2022-09-12T00:35:42.794Z,13.53
2022-09-12T00:38:09.242Z,13.56
2022-09-12T00:40:35.696Z,13.58
2022-09-12T00:43:02.164Z,13.65
2022-09-12T00:45:29.893Z,13.71
2022-09-12T00:47:59.644Z,13.79
2022-09-12T00:50:28.032Z,13.86
2022-09-12T00:53:06.973Z,13.89
2022-09-12T00:55:42.620Z,13.95
2022-09-12T00:58:18.578Z,13.96
2022-09-12T01:00:46.402Z,14.03
2022-09-12T01:03:15.945Z,14.00
2022-09-12T01:06:05.884Z,14.00
2022-09-12T01:08:34.000Z,14.07
2022-09-12T01:11:02.040Z,14.05
2022-09-12T01:13:28.843Z,14.00
2022-09-12T01:15:56.052Z,13.96
2022-09-12T01:21:46.759Z,14.04
2022-09-12T01:24:34.598Z,14.01
2022-09-12T01:27:36.314Z,13.97
2022-09-12T01:30:23.250Z,13.90
2022-09-12T01:33:03.542Z,13.85
2022-09-12T01:35:48.259Z,13.82
2022-09-12T01:38:36.546Z,13.98
2022-09-12T01:41:40.492Z,14.03
2022-09-12T01:44:28.712Z,14.01
2022-09-12T01:47:00.062Z,13.93
2022-09-12T01:49:37.771Z,13.92
2022-09-12T01:52:21.022Z,13.82
2022-09-12T01:55:09.701Z,13.85
2022-09-12T01:57:54.945Z,13.79
2022-09-12T02:00:21.768Z,13.70
2022-09-12T02:03:11.490Z,13.68
2022-09-12T02:05:42.932Z,13.62
2022-09-12T02:08:14.444Z,13.64
2022-09-12T02:10:57.957Z,13.63
2022-09-12T02:13:44.102Z,13.56
2022-09-12T02:16:17.310Z,13.59
2022-09-12T02:18:52.689Z,13.55
2022-09-12T02:21:22.250Z,13.46
2022-09-12T02:23:56.012Z,13.48
2022-09-12T02:26:32.716Z,13.48
2022-09-12T02:28:59.223Z,13.46
2022-09-12T02:31:32.665Z,13.43
2022-09-12T02:34:20.861Z,13.45
2022-09-12T02:37:11.236Z,13.39
2022-09-12T02:39:38.849Z,13.36
2022-09-12T02:42:06.715Z,13.33
2022-09-12T02:44:34.688Z,13.35
2022-09-12T02:47:43.318Z,13.33
2022-09-12T02:50:12.794Z,13.26
2022-09-12T02:52:40.686Z,13.30
2022-09-12T02:55:08.534Z,13.32
2022-09-12T02:57:34.901Z,13.36
2022-09-12T03:00:01.826Z,13.38
2022-09-12T03:02:37.663Z,13.28
2022-09-12T03:05:18.976Z,13.21
2022-09-12T03:08:07.215Z,13.20
2022-09-12T03:10:52.488Z,13.19
2022-09-12T03:13:37.108Z,13.13
2022-09-12T03:16:09.218Z,13.12
2022-09-12T03:18:47.729Z,13.17
2022-09-12T03:21:28.594Z,13.24
2022-09-12T03:24:14.164Z,13.23
2022-09-12T03:26:50.548Z,13.24
2022-09-12T03:29:19.143Z,13.29
2022-09-12T03:31:51.109Z,13.40
2022-09-12T03:34:18.007Z,13.54
2022-09-12T03:36:44.483Z,13.48
2022-09-12T03:39:10.882Z,13.47
2022-09-12T03:41:39.704Z,13.52
2022-09-12T03:44:06.249Z,13.49
2022-09-12T03:46:32.754Z,13.52
2022-09-12T03:48:59.457Z,13.65
2022-09-12T03:53:56.838Z,13.77
2022-09-12T03:56:23.331Z,13.82
2022-09-12T03:58:52.060Z,13.81
2022-09-12T04:01:20.186Z,13.97
2022-09-12T04:03:49.264Z,13.95
2022-09-12T04:06:24.184Z,13.91
2022-09-12T04:08:53.020Z,13.94
2022-09-12T04:11:21.275Z,14.02
2022-09-12T04:13:48.590Z,14.06
2022-09-12T04:16:16.283Z,14.04
2022-09-12T04:18:43.104Z,14.02
2022-09-12T04:21:15.917Z,14.10
2022-09-12T04:23:42.587Z,14.13
2022-09-12T04:26:09.926Z,14.10
2022-09-12T04:28:38.018Z,14.12
2022-09-12T04:31:11.861Z,14.18
2022-09-12T04:33:39.181Z,14.17
2022-09-12T04:36:25.319Z,14.15
2022-09-12T04:38:52.000Z,14.13
2022-09-12T04:41:22.326Z,14.13
2022-09-12T04:43:52.848Z,14.15
2022-09-12T04:46:20.305Z,14.21
2022-09-12T04:48:50.528Z,14.28
2022-09-12T04:51:22.791Z,14.25
2022-09-12T04:53:52.140Z,14.26
2022-09-12T04:56:21.702Z,14.28
2022-09-12T04:58:49.093Z,14.30
2022-09-12T05:01:18.672Z,14.38
2022-09-12T05:03:47.067Z,14.45
2022-09-12T05:06:16.702Z,14.44
2022-09-12T05:08:43.475Z,14.57
2022-09-12T05:11:59.658Z,14.59
2022-09-12T05:14:20.627Z,14.64
2022-09-12T05:16:49.471Z,14.68
2022-09-12T05:19:18.871Z,14.66
2022-09-12T05:21:45.372Z,14.80
2022-09-12T05:24:14.142Z,14.75
2022-09-12T05:26:40.628Z,14.78
2022-09-12T05:29:07.271Z,14.79
2022-09-12T05:31:34.309Z,14.85
2022-09-12T05:34:00.946Z,14.91
2022-09-12T05:36:32.125Z,14.88
2022-09-12T05:39:01.836Z,14.94
2022-09-12T05:41:30.318Z,14.96
2022-09-12T05:43:59.111Z,15.08
2022-09-12T05:46:28.000Z,15.16
2022-09-12T05:48:56.602Z,15.23
2022-09-12T05:51:28.544Z,15.31
2022-09-12T05:54:00.108Z,15.37
2022-09-12T05:56:28.696Z,15.44
2022-09-12T05:58:56.287Z,15.40
2022-09-12T06:01:23.564Z,15.49
2022-09-12T06:03:52.803Z,15.62
2022-09-12T06:06:21.919Z,15.65
2022-09-12T06:08:51.403Z,15.59
2022-09-12T06:11:21.148Z,15.61
2022-09-12T06:13:47.635Z,15.59
2022-09-12T06:16:22.347Z,15.77
2022-09-12T06:18:50.686Z,15.78
2022-09-12T06:21:17.702Z,15.87
2022-09-12T06:23:44.414Z,15.92
2022-09-12T06:26:13.091Z,16.04
2022-09-12T06:28:41.634Z,16.08
2022-09-12T06:31:11.464Z,16.18
2022-09-12T06:33:40.693Z,16.31
2022-09-12T06:36:12.864Z,16.35
2022-09-12T06:38:40.382Z,16.46
2022-09-12T06:41:08.874Z,16.49
2022-09-12T06:43:35.774Z,16.65
2022-09-12T06:46:02.922Z,16.73
2022-09-12T06:48:29.667Z,16.74
2022-09-12T06:50:56.845Z,16.80
2022-09-12T06:53:23.513Z,16.86
2022-09-12T06:56:00.907Z,16.85
2022-09-12T06:58:29.041Z,16.94
2022-09-12T07:01:10.046Z,16.89
2022-09-12T07:03:37.825Z,16.87
2022-09-12T07:06:10.146Z,16.83
2022-09-12T07:08:37.304Z,16.83
2022-09-12T07:11:20.504Z,16.99
2022-09-12T07:13:49.861Z,16.96
2022-09-12T07:16:19.656Z,17.00
2022-09-12T07:18:51.104Z,17.08
2022-09-12T07:21:17.444Z,17.17
2022-09-12T07:23:43.857Z,17.37
2022-09-12T07:26:13.363Z,17.38
2022-09-12T07:28:39.997Z,17.36
2022-09-12T07:31:10.481Z,17.51
2022-09-12T07:33:38.230Z,17.81
2022-09-12T07:36:07.660Z,18.05
2022-09-12T07:38:34.339Z,18.18
2022-09-12T07:41:00.909Z,18.34
2022-09-12T07:43:27.563Z,18.50
2022-09-12T07:45:57.413Z,18.73
2022-09-12T07:48:24.116Z,18.60
2022-09-12T07:51:05.447Z,18.82
2022-09-12T07:53:35.212Z,19.15
2022-09-12T07:56:01.821Z,19.50
2022-09-12T07:58:29.429Z,19.83
2022-09-12T08:01:08.903Z,20.27
2022-09-12T08:03:38.366Z,20.51
2022-09-12T08:06:13.266Z,20.78
2022-09-12T08:08:39.965Z,20.68
2022-09-12T08:11:09.381Z,20.97
2022-09-12T08:13:37.243Z,21.41
2022-09-12T08:16:11.047Z,21.88
2022-09-12T08:18:37.973Z,21.83
2022-09-12T08:21:06.527Z,22.04
2022-09-12T08:23:33.659Z,22.30
2022-09-12T08:26:05.749Z,22.39
2022-09-12T08:28:35.501Z,22.48
2022-09-12T08:31:03.824Z,22.28
2022-09-12T08:33:31.135Z,21.76
2022-09-12T08:36:03.503Z,21.39
2022-09-12T08:38:29.915Z,21.45
2022-09-12T08:41:17.885Z,21.51
2022-09-12T08:43:56.164Z,21.80
2022-09-12T08:46:32.684Z,21.71
2022-09-12T08:49:02.539Z,21.94
2022-09-12T08:51:33.433Z,22.37
2022-09-12T08:54:02.657Z,22.48
2022-09-12T08:56:34.334Z,22.83
2022-09-12T08:59:00.772Z,23.34
2022-09-12T09:01:41.644Z,23.39
2022-09-12T09:04:29.175Z,23.81
2022-09-12T09:06:58.728Z,23.86
2022-09-12T09:09:57.349Z,23.45
2022-09-12T09:12:32.604Z,24.27
2022-09-12T09:15:34.673Z,26.46
2022-09-12T09:18:13.493Z,27.69
2022-09-12T09:20:51.984Z,28.33
2022-09-12T09:23:29.790Z,26.98
2022-09-12T09:26:15.498Z,27.26
2022-09-12T09:28:45.038Z,28.73
2022-09-12T09:31:16.264Z,28.72
2022-09-12T09:33:44.426Z,29.74
2022-09-12T09:36:16.907Z,31.74
2022-09-12T09:38:49.187Z,33.13
2022-09-12T09:41:33.443Z,32.55
2022-09-12T09:44:00.941Z,31.20
2022-09-12T09:46:27.892Z,30.32
2022-09-12T09:48:56.204Z,30.29
2022-09-12T09:51:28.156Z,29.68
2022-09-12T09:54:00.545Z,30.23
2022-09-12T09:56:35.921Z,30.74
2022-09-12T09:59:31.441Z,31.40
2022-09-12T10:02:03.967Z,33.12
2022-09-12T10:04:41.079Z,35.02
2022-09-12T10:07:19.825Z,36.88
2022-09-12T10:10:07.151Z,36.65
2022-09-12T10:12:33.675Z,35.94
2022-09-12T10:15:02.453Z,34.79
2022-09-12T10:17:34.169Z,36.52
2022-09-12T10:20:20.491Z,37.10
2022-09-12T10:22:48.358Z,36.74
2022-09-12T10:25:18.354Z,36.58
2022-09-12T10:27:44.777Z,36.32
2022-09-12T10:30:20.086Z,36.77
2022-09-12T10:32:49.833Z,36.83
2022-09-12T10:35:21.009Z,36.72
2022-09-12T10:38:00.070Z,36.05
2022-09-12T10:40:30.951Z,36.92
2022-09-12T10:43:01.422Z,37.18
2022-09-12T10:45:27.721Z,36.17
2022-09-12T10:47:55.709Z,35.93
2022-09-12T10:50:55.927Z,36.52
2022-09-12T10:53:43.766Z,35.60
2022-09-12T10:56:13.274Z,36.77
2022-09-12T10:59:07.850Z,33.23
2022-09-12T11:01:53.076Z,31.75
2022-09-12T11:04:52.090Z,30.01
2022-09-12T11:07:37.797Z,28.81
2022-09-12T11:10:13.383Z,28.87
2022-09-12T11:12:54.982Z,30.58
2022-09-12T11:15:36.823Z,32.19
2022-09-12T11:18:26.495Z,31.84
2022-09-12T11:20:53.012Z,30.85
2022-09-12T11:23:47.059Z,32.05
2022-09-12T11:26:20.793Z,32.69
2022-09-12T11:29:27.865Z,32.44
2022-09-12T11:32:32.209Z,31.79
2022-09-12T11:35:23.740Z,31.06
2022-09-12T11:38:08.804Z,30.33
2022-09-12T11:40:54.306Z,30.84
2022-09-12T11:43:29.856Z,29.91
2022-09-12T11:46:30.044Z,29.20
2022-09-12T11:49:11.302Z,28.52
2022-09-12T11:51:59.395Z,28.03
2022-09-12T11:54:41.058Z,27.48
2022-09-12T11:57:19.945Z,27.62
2022-09-12T11:59:52.441Z,27.34
2022-09-12T12:02:26.485Z,27.42
2022-09-12T12:04:56.149Z,27.76
2022-09-12T12:07:22.675Z,27.98
2022-09-12T12:09:51.222Z,27.59
2022-09-12T12:12:25.275Z,27.32
2022-09-12T12:14:54.565Z,26.64
2022-09-12T12:17:24.238Z,26.81
2022-09-12T12:20:05.555Z,26.81
2022-09-12T12:22:33.640Z,26.99
2022-09-12T12:25:11.923Z,26.87
2022-09-12T12:27:44.418Z,27.24
2022-09-12T12:30:29.225Z,27.34
2022-09-12T12:33:10.870Z,27.30
2022-09-12T12:35:37.170Z,27.63
2022-09-12T12:38:05.944Z,27.47
2022-09-12T12:40:32.637Z,27.06
2022-09-12T12:43:02.039Z,26.46
2022-09-12T12:45:28.390Z,26.43
2022-09-12T12:48:04.075Z,26.86
2022-09-12T12:50:34.513Z,26.75
2022-09-12T12:53:25.724Z,26.87
2022-09-12T12:55:54.793Z,27.17
2022-09-12T12:58:28.831Z,27.24
2022-09-12T13:01:16.283Z,27.34
2022-09-12T13:03:46.721Z,27.17
2022-09-12T13:06:37.579Z,27.10
2022-09-12T13:09:19.349Z,26.86
2022-09-12T13:11:46.353Z,26.85
2022-09-12T13:14:35.588Z,27.00
2022-09-12T13:17:05.925Z,26.92
2022-09-12T13:19:36.180Z,26.81
2022-09-12T13:22:07.781Z,26.95
2022-09-12T13:24:42.516Z,26.62
2022-09-12T13:27:21.773Z,26.56
2022-09-12T13:29:48.687Z,26.42
2022-09-12T13:32:16.877Z,26.41
2022-09-12T13:35:04.085Z,26.21
2022-09-12T13:37:58.040Z,26.02
2022-09-12T13:40:49.028Z,26.26
2022-09-12T13:43:21.502Z,26.11
2022-09-12T13:45:48.221Z,26.10
2022-09-12T13:48:22.147Z,26.15
2022-09-12T13:50:53.473Z,26.02
2022-09-12T13:53:23.888Z,26.18
2022-09-12T13:55:55.125Z,26.14
2022-09-12T13:58:28.894Z,26.48
2022-09-12T14:01:02.532Z,26.40
2022-09-12T14:03:38.761Z,26.27
2022-09-12T14:06:05.251Z,26.24
2022-09-12T14:08:31.632Z,26.11
2022-09-12T14:10:58.158Z,26.02
2022-09-12T14:13:26.605Z,25.92
2022-09-12T14:15:55.738Z,26.03
2022-09-12T14:18:25.723Z,26.14
2022-09-12T14:20:53.080Z,26.44
2022-09-12T14:23:33.187Z,26.18
2022-09-12T14:26:04.903Z,26.20
2022-09-12T14:28:32.653Z,26.18
2022-09-12T14:31:04.032Z,26.08
2022-09-12T14:33:34.278Z,26.08
2022-09-12T14:36:24.351Z,25.99
2022-09-12T14:38:55.961Z,25.88
2022-09-12T14:41:26.583Z,26.12
2022-09-12T14:43:58.255Z,26.41
2022-09-12T14:46:30.701Z,26.28
2022-09-12T14:49:01.983Z,26.69
2022-09-12T14:51:33.353Z,27.01
2022-09-12T14:53:59.771Z,26.71
2022-09-12T14:56:44.432Z,26.52
2022-09-12T14:59:35.829Z,26.22
2022-09-12T15:02:14.343Z,25.93
2022-09-12T15:04:42.570Z,25.61
2022-09-12T15:07:21.425Z,25.32
2022-09-12T15:09:47.877Z,25.32
2022-09-12T15:12:14.303Z,25.22
2022-09-12T15:14:40.829Z,25.06
2022-09-12T15:17:07.193Z,24.80
2022-09-12T15:19:33.607Z,24.99
2022-09-12T15:22:00.181Z,25.08
2022-09-12T15:24:26.535Z,25.09
2022-09-12T15:26:52.903Z,25.30
2022-09-12T15:29:19.733Z,25.34
2022-09-12T15:31:49.897Z,25.43
2022-09-12T15:34:16.338Z,25.50
2022-09-12T15:36:42.721Z,25.38
2022-09-12T15:39:10.425Z,25.52
2022-09-12T15:41:38.473Z,25.54
2022-09-12T15:44:06.839Z,25.30
2022-09-12T15:46:33.253Z,25.18
2022-09-12T15:48:59.692Z,25.00
2022-09-12T15:51:26.178Z,24.77
2022-09-12T15:53:52.586Z,24.81
2022-09-12T15:56:20.760Z,24.86
2022-09-12T15:58:58.235Z,24.68
2022-09-12T16:01:27.038Z,24.75
2022-09-12T16:03:53.701Z,24.91
2022-09-12T16:06:20.084Z,25.12
2022-09-12T16:08:46.683Z,25.17
2022-09-12T16:11:23.813Z,25.28
2022-09-12T16:13:52.193Z,25.20
2022-09-12T16:16:18.567Z,25.03
2022-09-12T16:18:45.384Z,24.79
2022-09-12T16:21:15.240Z,24.68
2022-09-12T16:23:43.408Z,24.40
2022-09-12T16:26:10.264Z,24.30
2022-09-12T16:28:36.812Z,24.06
2022-09-12T16:31:05.552Z,23.95
2022-09-12T16:33:32.687Z,23.87
2022-09-12T16:36:13.870Z,24.02
2022-09-12T16:38:45.356Z,24.20
2022-09-12T16:41:12.693Z,24.19
2022-09-12T16:43:39.421Z,24.21
2022-09-12T16:46:10.070Z,24.21
2022-09-12T16:48:37.119Z,24.25
2022-09-12T16:51:05.711Z,24.32
2022-09-12T16:53:33.931Z,24.35
2022-09-12T16:56:01.481Z,24.22
2022-09-12T16:58:28.127Z,24.02
2022-09-12T17:01:06.624Z,23.63
2022-09-12T17:03:33.190Z,23.40
2022-09-12T17:06:05.514Z,23.21
2022-09-12T17:08:34.277Z,23.08
2022-09-12T17:11:06.422Z,22.95
2022-09-12T17:14:00.198Z,22.77
2022-09-12T17:16:19.969Z,22.71
2022-09-12T17:18:46.494Z,22.55
2022-09-12T17:21:13.500Z,22.66
2022-09-12T17:23:40.556Z,22.62
2022-09-12T17:26:08.193Z,22.56
2022-09-12T17:28:35.002Z,22.58
2022-09-12T17:31:04.463Z,22.63
2022-09-12T17:33:31.158Z,22.63
2022-09-12T17:36:06.267Z,22.54
2022-09-12T17:38:33.963Z,22.45
2022-09-12T17:41:07.993Z,22.50
2022-09-12T17:43:35.877Z,22.44
2022-09-12T17:46:02.329Z,22.41
2022-09-12T17:48:28.764Z,22.21
2022-09-12T17:50:55.136Z,22.10
2022-09-12T17:53:21.495Z,22.01
2022-09-12T17:55:51.455Z,21.98
2022-09-12T17:58:20.248Z,21.98
2022-09-12T18:00:46.604Z,21.95
2022-09-12T18:03:13.565Z,21.96
2022-09-12T18:05:47.749Z,21.79
2022-09-12T18:08:15.093Z,21.63
2022-09-12T18:10:41.614Z,21.66
2022-09-12T18:13:08.011Z,21.67
2022-09-12T18:15:35.036Z,21.65
2022-09-12T18:18:02.439Z,21.57
2022-09-12T18:20:29.158Z,21.66
2022-09-12T18:22:55.510Z,21.63
2022-09-12T18:25:22.132Z,21.60
2022-09-12T18:27:48.513Z,21.64
2022-09-12T18:30:21.490Z,21.62
2022-09-12T18:32:48.505Z,21.61
2022-09-12T18:35:15.353Z,21.62
2022-09-12T18:37:42.128Z,21.61
2022-09-12T18:40:09.016Z,22.07
2022-09-12T18:42:35.478Z,21.91
2022-09-12T18:45:01.899Z,21.75
2022-09-12T18:47:28.369Z,21.69
2022-09-12T18:49:54.971Z,21.62
2022-09-12T18:52:21.319Z,21.63
2022-09-12T18:54:50.067Z,21.49
2022-09-12T18:57:16.439Z,21.35
2022-09-12T18:59:42.785Z,21.37
2022-09-12T19:02:15.850Z,21.20
2022-09-12T19:04:42.407Z,21.12
2022-09-12T19:07:08.828Z,21.04
2022-09-12T19:09:35.294Z,21.00
2022-09-12T19:12:01.883Z,20.88
2022-09-12T19:14:28.270Z,20.80
2022-09-12T19:16:54.807Z,20.80
2022-09-12T19:19:21.833Z,20.68
2022-09-12T19:21:48.409Z,20.58
2022-09-12T19:24:14.951Z,20.58
2022-09-12T19:26:41.457Z,20.58
2022-09-12T19:29:08.314Z,20.51
2022-09-12T19:31:35.158Z,20.49
2022-09-12T19:34:08.154Z,20.46
2022-09-12T19:36:50.697Z,20.42
2022-09-12T19:39:18.577Z,20.24
2022-09-12T19:41:45.674Z,20.12
2022-09-12T19:44:12.379Z,20.15
2022-09-12T19:46:38.896Z,20.04
2022-09-12T19:49:05.360Z,19.98
2022-09-12T19:51:31.706Z,19.93
2022-09-12T19:53:58.136Z,19.99
2022-09-12T19:56:24.699Z,19.95
2022-09-12T19:58:56.024Z,19.97
2022-09-12T20:01:26.964Z,19.92
2022-09-12T20:03:53.712Z,19.84
2022-09-12T20:06:20.358Z,19.77
2022-09-12T20:08:47.056Z,19.69
2022-09-12T20:11:15.947Z,19.59
2022-09-12T20:13:42.297Z,19.47
2022-09-12T20:16:10.914Z,19.44
2022-09-12T20:18:38.340Z,19.47
2022-09-12T20:21:13.796Z,19.54
2022-09-12T20:23:40.249Z,19.56
2022-09-12T20:26:08.214Z,19.61
2022-09-12T20:28:37.532Z,19.61
2022-09-12T20:31:10.742Z,19.58
2022-09-12T20:33:37.484Z,19.58
2022-09-12T20:36:12.657Z,19.66
2022-09-12T20:38:39.674Z,19.67
2022-09-12T20:41:08.816Z,19.59
2022-09-12T20:43:37.109Z,19.61
2022-09-12T20:46:07.832Z,19.66
2022-09-12T20:48:34.327Z,19.66
2022-09-12T20:51:00.761Z,19.64
2022-09-12T20:53:30.547Z,19.56
2022-09-12T20:56:00.615Z,19.54
2022-09-12T20:58:27.007Z,19.53
2022-09-12T21:00:53.470Z,19.51
2022-09-12T21:03:19.829Z,19.50
2022-09-12T21:05:46.679Z,19.56
2022-09-12T21:08:14.374Z,19.44
2022-09-12T21:10:41.956Z,19.44
2022-09-12T21:13:12.979Z,19.46
2022-09-12T21:15:40.573Z,19.48
2022-09-12T21:18:07.400Z,19.50
2022-09-12T21:20:34.284Z,19.47
2022-09-12T21:23:01.051Z,19.54
2022-09-12T21:25:27.484Z,19.48
2022-09-12T21:27:54.018Z,19.39
2022-09-12T21:30:20.505Z,19.30
2022-09-12T21:32:47.022Z,19.34
2022-09-12T21:35:13.443Z,19.31
2022-09-12T21:37:39.842Z,19.33
2022-09-12T21:40:06.542Z,19.34
2022-09-12T21:42:33.038Z,19.29
2022-09-12T21:44:59.475Z,19.30
2022-09-12T21:47:25.894Z,19.30
2022-09-12T21:49:52.422Z,19.34
2022-09-12T21:52:18.827Z,19.33
2022-09-12T21:54:45.187Z,19.29
2022-09-12T21:57:11.679Z,19.30
2022-09-12T21:59:38.079Z,19.29
2022-09-12T22:02:04.523Z,19.25
2022-09-12T22:04:31.090Z,19.28
2022-09-12T22:06:57.434Z,19.31
2022-09-12T22:09:23.774Z,19.25
2022-09-12T22:11:50.131Z,19.23
2022-09-12T22:14:16.541Z,19.23
2022-09-12T22:16:42.987Z,19.16
2022-09-12T22:19:09.367Z,19.15
2022-09-12T22:21:35.770Z,19.08
2022-09-12T22:24:02.371Z,19.08
2022-09-12T22:26:29.399Z,18.89
2022-09-12T22:28:56.059Z,18.76
2022-09-12T22:31:22.513Z,18.70
2022-09-12T22:33:49.117Z,18.70
2022-09-12T22:36:15.473Z,18.69
2022-09-12T22:38:41.825Z,18.57
2022-09-12T22:41:10.901Z,18.41
2022-09-12T22:43:37.586Z,18.37
2022-09-12T22:46:08.587Z,18.39
2022-09-12T22:48:35.611Z,18.41
2022-09-12T22:51:01.985Z,18.32
2022-09-12T22:53:28.323Z,18.35
2022-09-12T22:55:54.822Z,18.33
2022-09-12T22:58:21.173Z,18.31
2022-09-12T23:00:52.209Z,18.37
2022-09-12T23:03:20.091Z,18.43
2022-09-12T23:05:47.636Z,18.44
2022-09-12T23:08:15.729Z,18.45
2022-09-12T23:10:42.318Z,18.51
2022-09-12T23:13:08.721Z,18.48
2022-09-12T23:15:35.084Z,18.45
2022-09-12T23:18:03.907Z,18.41
2022-09-12T23:20:31.427Z,18.39
2022-09-12T23:22:57.830Z,18.36
2022-09-12T23:25:24.233Z,18.32
2022-09-12T23:27:50.666Z,18.31
2022-09-12T23:30:17.997Z,18.28
2022-09-12T23:32:44.397Z,18.30
2022-09-12T23:35:10.954Z,18.39
2022-09-12T23:37:37.290Z,18.39
2022-09-12T23:40:03.936Z,18.44
2022-09-12T23:42:30.347Z,18.43
2022-09-12T23:44:56.742Z,18.46
2022-09-12T23:47:23.198Z,18.46
2022-09-12T23:49:49.598Z,18.52
2022-09-12T23:52:15.941Z,18.57
2022-09-12T23:54:42.313Z,18.67
2022-09-12T23:57:08.691Z,18.71
2022-09-12T23:59:35.041Z,18.73
